createdAt,value
2023-05-09T00:01:32.658Z,101614.13
2023-05-09T00:04:00.993Z,101613.19
2023-05-09T00:06:29.321Z,101608.84
2023-05-09T00:08:57.477Z,101617.63
2023-05-09T00:11:27.187Z,101613.25
2023-05-09T00:13:55.260Z,101609.16
2023-05-09T00:16:25.615Z,101606.72
2023-05-09T00:18:53.947Z,101607.66
2023-05-09T00:21:22.023Z,101602.38
2023-05-09T00:23:50.070Z,101603.53
2023-05-09T00:26:18.483Z,101593.72
2023-05-09T00:28:48.044Z,101589.25
2023-05-09T00:31:16.097Z,101579.53
2023-05-09T00:33:44.271Z,101570.50
2023-05-09T00:36:12.369Z,101569.66
2023-05-09T00:38:40.401Z,101570.41
2023-05-09T00:41:08.439Z,101563.94
2023-05-09T00:43:36.511Z,101563.94
2023-05-09T00:46:06.000Z,101566.69
2023-05-09T00:48:34.071Z,101564.03
2023-05-09T00:51:02.378Z,101558.84
2023-05-09T00:53:30.755Z,101558.53
2023-05-09T00:56:01.264Z,101553.44
2023-05-09T00:58:29.741Z,101554.28
2023-05-09T01:00:57.798Z,101555.00
2023-05-09T01:03:27.401Z,101546.78
2023-05-09T01:05:59.646Z,101551.00
2023-05-09T01:08:42.615Z,101553.66
2023-05-09T01:11:19.383Z,101554.50
2023-05-09T01:13:58.806Z,101538.41
2023-05-09T01:16:35.557Z,101536.47
2023-05-09T01:19:16.041Z,101526.00
2023-05-09T01:21:49.314Z,101520.63
2023-05-09T01:24:38.906Z,101523.06
2023-05-09T01:27:44.479Z,101520.94
2023-05-09T01:30:15.955Z,101518.91
2023-05-09T01:32:47.556Z,101512.03
2023-05-09T01:35:17.302Z,101512.16
2023-05-09T01:37:50.623Z,101512.88
2023-05-09T01:40:21.918Z,101510.34
2023-05-09T01:42:53.802Z,101512.03
2023-05-09T01:45:25.087Z,101504.91
2023-05-09T01:47:54.841Z,101501.75
2023-05-09T01:50:24.239Z,101497.56
2023-05-09T01:52:56.304Z,101507.50
2023-05-09T01:55:27.769Z,101507.41
2023-05-09T01:57:56.875Z,101505.81
2023-05-09T02:00:27.121Z,101507.81
2023-05-09T02:02:56.576Z,101504.13
2023-05-09T02:05:29.400Z,101497.16
2023-05-09T02:07:58.589Z,101499.56
2023-05-09T02:10:30.246Z,101493.31
2023-05-09T02:12:58.475Z,101481.03
2023-05-09T02:15:28.602Z,101481.75
2023-05-09T02:17:56.720Z,101484.19
2023-05-09T02:20:24.923Z,101482.94
2023-05-09T02:22:53.398Z,101491.22
2023-05-09T02:25:21.512Z,101487.00
2023-05-09T02:27:49.746Z,101475.47
2023-05-09T02:30:25.392Z,101475.38
2023-05-09T02:33:00.510Z,101479.56
2023-05-09T02:35:30.046Z,101469.97
2023-05-09T02:38:00.804Z,101472.94
2023-05-09T02:40:30.613Z,101462.44
2023-05-09T02:42:58.975Z,101463.28
2023-05-09T02:45:27.260Z,101461.59
2023-05-09T02:47:56.973Z,101465.50
2023-05-09T02:50:25.206Z,101467.31
2023-05-09T02:52:53.406Z,101461.38
2023-05-09T02:55:21.474Z,101467.44
2023-05-09T02:57:53.988Z,101464.97
2023-05-09T03:00:27.186Z,101460.97
2023-05-09T03:02:56.632Z,101459.63
2023-05-09T03:05:24.852Z,101456.03
2023-05-09T03:07:53.156Z,101453.38
2023-05-09T03:10:21.229Z,101443.63
2023-05-09T03:12:49.321Z,101444.47
2023-05-09T03:15:17.579Z,101446.16
2023-05-09T03:17:46.706Z,101443.63
2023-05-09T03:20:16.871Z,101437.69
2023-05-09T03:22:44.961Z,101440.47
2023-05-09T03:25:16.436Z,101437.22
2023-05-09T03:27:44.662Z,101439.44
2023-05-09T03:30:14.014Z,101433.94
2023-05-09T03:32:42.111Z,101433.19
2023-05-09T03:35:10.256Z,101434.75
2023-05-09T03:37:42.242Z,101430.22
2023-05-09T03:40:11.104Z,101427.69
2023-05-09T03:42:39.195Z,101427.56
2023-05-09T03:45:08.158Z,101426.75
2023-05-09T03:47:38.956Z,101424.69
2023-05-09T03:50:08.411Z,101423.75
2023-05-09T03:52:37.328Z,101421.44
2023-05-09T03:55:07.720Z,101423.34
2023-05-09T03:57:37.080Z,101411.19
2023-05-09T04:00:06.711Z,101415.63
2023-05-09T04:02:35.256Z,101411.28
2023-05-09T04:05:03.879Z,101416.06
2023-05-09T04:07:31.977Z,101407.81
2023-05-09T04:10:00.311Z,101400.06
2023-05-09T04:12:29.812Z,101397.44
2023-05-09T04:14:57.845Z,101393.72
2023-05-09T04:17:26.029Z,101393.31
2023-05-09T04:19:54.340Z,101388.25
2023-05-09T04:22:22.397Z,101387.72
2023-05-09T04:24:50.652Z,101387.81
2023-05-09T04:27:18.781Z,101395.84
2023-05-09T04:29:49.397Z,101398.59
2023-05-09T04:32:17.642Z,101392.91
2023-05-09T04:34:45.756Z,101396.72
2023-05-09T04:37:14.354Z,101395.47
2023-05-09T04:39:42.434Z,101395.25
2023-05-09T04:42:10.880Z,101395.25
2023-05-09T04:44:38.941Z,101394.94
2023-05-09T04:47:08.398Z,101390.19
2023-05-09T04:49:36.477Z,101384.03
2023-05-09T04:52:04.703Z,101388.78
2023-05-09T04:54:32.886Z,101380.56
2023-05-09T04:57:13.827Z,101369.97
2023-05-09T04:59:45.377Z,101377.03
2023-05-09T05:02:14.862Z,101373.84
2023-05-09T05:04:42.997Z,101371.44
2023-05-09T05:07:11.130Z,101366.88
2023-05-09T05:09:39.215Z,101366.75
2023-05-09T05:12:10.518Z,101358.50
2023-05-09T05:14:38.616Z,101362.94
2023-05-09T05:17:06.728Z,101362.84
2023-05-09T05:19:36.220Z,101359.00
2023-05-09T05:22:04.501Z,101356.56
2023-05-09T05:24:32.533Z,101350.56
2023-05-09T05:27:00.711Z,101351.50
2023-05-09T05:29:31.705Z,101342.41
2023-05-09T05:32:00.023Z,101344.53
2023-05-09T05:34:28.289Z,101348.88
2023-05-09T05:36:57.756Z,101339.22
2023-05-09T05:39:25.850Z,101340.59
2023-05-09T05:41:54.084Z,101339.44
2023-05-09T05:44:22.122Z,101335.09
2023-05-09T05:46:50.442Z,101331.38
2023-05-09T05:49:18.412Z,101328.50
2023-05-09T05:51:46.486Z,101323.56
2023-05-09T05:54:15.872Z,101317.16
2023-05-09T05:56:46.926Z,101311.19
2023-05-09T05:59:17.364Z,101316.16
2023-05-09T06:01:45.446Z,101312.34
2023-05-09T06:04:13.635Z,101309.00
2023-05-09T06:06:41.906Z,101309.09
2023-05-09T06:09:09.914Z,101298.50
2023-05-09T06:11:42.262Z,101297.03
2023-05-09T06:14:10.350Z,101294.97
2023-05-09T06:16:38.486Z,101293.31
2023-05-09T06:19:06.602Z,101285.56
2023-05-09T06:21:35.266Z,101284.97
2023-05-09T06:24:11.873Z,101284.63
2023-05-09T06:26:46.201Z,101285.38
2023-05-09T06:29:15.456Z,101277.31
2023-05-09T06:31:43.561Z,101279.34
2023-05-09T06:34:11.747Z,101275.28
2023-05-09T06:36:39.851Z,101271.66
2023-05-09T06:39:11.108Z,101263.75
2023-05-09T06:41:39.165Z,101267.72
2023-05-09T06:44:11.818Z,101261.47
2023-05-09T06:46:39.873Z,101266.41
2023-05-09T06:49:07.921Z,101262.41
2023-05-09T06:51:36.630Z,101252.31
2023-05-09T06:54:04.755Z,101251.84
2023-05-09T06:56:32.983Z,101250.63
2023-05-09T06:59:01.135Z,101247.38
2023-05-09T07:01:30.765Z,101240.00
2023-05-09T07:03:59.753Z,101241.22
2023-05-09T07:06:27.784Z,101231.91
2023-05-09T07:08:55.825Z,101233.84
2023-05-09T07:11:23.958Z,101233.81
2023-05-09T07:13:52.038Z,101233.31
2023-05-09T07:16:22.937Z,101225.34
2023-05-09T07:18:52.457Z,101219.75
2023-05-09T07:21:20.537Z,101225.41
2023-05-09T07:23:48.576Z,101219.84
2023-05-09T07:26:16.640Z,101217.50
2023-05-09T07:28:44.665Z,101223.28
2023-05-09T07:31:12.905Z,101215.31
2023-05-09T07:33:40.910Z,101216.34
2023-05-09T07:36:13.209Z,101207.22
2023-05-09T07:38:41.261Z,101206.53
2023-05-09T07:41:09.310Z,101207.31
2023-05-09T07:43:37.489Z,101196.78
2023-05-09T07:46:05.683Z,101199.06
2023-05-09T07:48:33.808Z,101197.75
2023-05-09T07:51:01.861Z,101193.50
2023-05-09T07:53:31.343Z,101194.25
2023-05-09T07:55:59.375Z,101195.94
2023-05-09T07:58:27.518Z,101187.47
2023-05-09T08:00:57.669Z,101181.81
2023-05-09T08:03:26.043Z,101177.28
2023-05-09T08:05:55.478Z,101172.59
2023-05-09T08:08:23.754Z,101166.97
2023-05-09T08:10:53.247Z,101170.13
2023-05-09T08:13:22.356Z,101169.31
2023-05-09T08:15:50.613Z,101162.75
2023-05-09T08:18:18.733Z,101166.78
2023-05-09T08:20:46.820Z,101157.44
2023-05-09T08:23:14.849Z,101160.09
2023-05-09T08:25:43.201Z,101157.03
2023-05-09T08:28:12.610Z,101148.88
2023-05-09T08:30:40.724Z,101147.19
2023-05-09T08:33:08.945Z,101146.50
2023-05-09T08:35:37.084Z,101146.13
2023-05-09T08:38:05.170Z,101148.50
2023-05-09T08:40:37.745Z,101145.56
2023-05-09T08:43:08.079Z,101139.97
2023-05-09T08:45:45.818Z,101140.66
2023-05-09T08:48:15.093Z,101134.94
2023-05-09T08:50:43.250Z,101125.25
2023-05-09T08:53:15.393Z,101127.19
2023-05-09T08:55:43.708Z,101124.00
2023-05-09T08:58:12.118Z,101111.69
2023-05-09T09:00:44.518Z,101125.69
2023-05-09T09:03:15.595Z,101121.34
2023-05-09T09:05:44.370Z,101113.63
2023-05-09T09:08:12.684Z,101118.69
2023-05-09T09:10:47.348Z,101111.69
2023-05-09T09:13:18.078Z,101108.19
2023-05-09T09:15:49.279Z,101108.50
2023-05-09T09:18:22.059Z,101111.00
2023-05-09T09:20:54.303Z,101115.16
2023-05-09T09:23:25.835Z,101112.09
2023-05-09T09:26:00.020Z,101101.75
2023-05-09T09:28:28.698Z,101103.25
2023-05-09T09:30:58.266Z,101098.94
2023-05-09T09:33:28.036Z,101100.47
2023-05-09T09:35:57.517Z,101085.09
2023-05-09T09:38:26.871Z,101096.72
2023-05-09T09:40:55.940Z,101097.00
2023-05-09T09:43:29.053Z,101092.22
2023-05-09T09:46:01.780Z,101088.72
2023-05-09T09:48:33.865Z,101086.03
2023-05-09T09:51:09.412Z,101089.56
2023-05-09T09:53:40.607Z,101081.72
2023-05-09T09:56:09.228Z,101082.44
2023-05-09T09:58:46.183Z,101075.81
2023-05-09T10:01:16.744Z,101080.84
2023-05-09T10:03:46.433Z,101073.38
2023-05-09T10:06:16.544Z,101078.22
2023-05-09T10:08:47.572Z,101079.69
2023-05-09T10:11:16.538Z,101077.03
2023-05-09T10:13:45.360Z,101075.59
2023-05-09T10:16:16.006Z,101071.72
2023-05-09T10:18:44.480Z,101073.81
2023-05-09T10:21:16.399Z,101067.19
2023-05-09T10:23:52.376Z,101063.19
2023-05-09T10:26:27.544Z,101061.34
2023-05-09T10:28:58.232Z,101056.25
2023-05-09T10:31:29.553Z,101054.88
2023-05-09T10:33:58.698Z,101049.16
2023-05-09T10:36:29.590Z,101036.97
2023-05-09T10:38:57.647Z,101042.31
2023-05-09T10:41:28.637Z,101031.34
2023-05-09T10:43:58.035Z,101038.50
2023-05-09T10:46:28.461Z,101034.16
2023-05-09T10:48:57.248Z,101026.78
2023-05-09T10:51:25.894Z,101029.31
2023-05-09T10:53:55.968Z,101024.06
2023-05-09T10:56:27.163Z,101022.47
2023-05-09T10:58:55.756Z,101028.47
2023-05-09T11:01:35.487Z,101030.69
2023-05-09T11:04:09.831Z,101024.28
2023-05-09T11:06:47.700Z,101025.00
2023-05-09T11:09:33.908Z,101019.94
2023-05-09T11:12:09.762Z,101016.97
2023-05-09T11:14:44.422Z,101013.53
2023-05-09T11:17:15.627Z,101012.97
2023-05-09T11:20:05.570Z,101014.28
2023-05-09T11:22:42.412Z,101012.50
2023-05-09T11:25:13.252Z,101006.34
2023-05-09T11:27:44.409Z,101011.97
2023-05-09T11:30:14.816Z,101005.84
2023-05-09T11:32:46.761Z,101010.44
2023-05-09T11:35:17.620Z,101005.16
2023-05-09T11:37:48.215Z,101007.13
2023-05-09T11:40:18.482Z,101009.78
2023-05-09T11:42:48.470Z,100998.91
2023-05-09T11:45:17.766Z,101007.72
2023-05-09T11:47:48.432Z,101011.81
2023-05-09T11:50:17.873Z,101000.56
2023-05-09T11:52:46.658Z,101002.09
2023-05-09T11:55:20.025Z,100989.72
2023-05-09T11:57:49.941Z,100993.94
2023-05-09T12:00:18.932Z,100990.13
2023-05-09T12:02:52.821Z,100983.09
2023-05-09T12:05:22.905Z,100979.97
2023-05-09T12:07:52.561Z,100970.78
2023-05-09T12:10:22.865Z,100975.50
2023-05-09T12:12:53.180Z,100973.22
2023-05-09T12:15:25.230Z,100968.06
2023-05-09T12:18:05.104Z,100968.34
2023-05-09T12:20:44.413Z,100966.97
2023-05-09T12:23:14.469Z,100964.00
2023-05-09T12:25:49.002Z,100960.63
2023-05-09T12:28:17.486Z,100951.53
2023-05-09T12:30:46.360Z,100955.88
2023-05-09T12:33:16.164Z,100959.06
2023-05-09T12:35:47.394Z,100955.59
2023-05-09T12:38:16.227Z,100952.00
2023-05-09T12:40:49.448Z,100945.97
2023-05-09T12:43:19.009Z,100946.13
2023-05-09T12:45:47.072Z,100937.88
2023-05-09T12:48:16.706Z,100941.09
2023-05-09T12:50:48.627Z,100936.19
2023-05-09T12:53:25.263Z,100930.59
2023-05-09T12:55:57.277Z,100934.63
2023-05-09T12:58:30.075Z,100939.47
2023-05-09T13:00:57.963Z,100933.09
2023-05-09T13:03:31.173Z,100930.47
2023-05-09T13:06:00.695Z,100924.72
2023-05-09T13:08:29.616Z,100920.44
2023-05-09T13:11:12.165Z,100921.72
2023-05-09T13:13:46.489Z,100915.38
2023-05-09T13:16:17.344Z,100917.91
2023-05-09T13:18:47.271Z,100914.78
2023-05-09T13:21:15.670Z,100911.59
2023-05-09T13:23:45.455Z,100914.25
2023-05-09T13:26:13.769Z,100903.91
2023-05-09T13:28:41.879Z,100908.31
2023-05-09T13:31:09.969Z,100896.91
2023-05-09T13:33:38.080Z,100902.47
2023-05-09T13:36:08.191Z,100896.22
2023-05-09T13:38:38.881Z,100894.97
2023-05-09T13:41:10.646Z,100898.88
2023-05-09T13:43:42.682Z,100892.56
2023-05-09T13:46:10.777Z,100889.59
2023-05-09T13:48:41.972Z,100884.03
2023-05-09T13:51:11.485Z,100877.22
2023-05-09T13:53:40.215Z,100877.22
2023-05-09T13:56:09.498Z,100870.53
2023-05-09T13:58:37.895Z,100871.75
2023-05-09T14:01:06.032Z,100872.44
2023-05-09T14:03:34.178Z,100862.16
2023-05-09T14:06:02.220Z,100857.09
2023-05-09T14:08:31.975Z,100867.72
2023-05-09T14:10:59.985Z,100865.34
2023-05-09T14:13:32.071Z,100861.53
2023-05-09T14:16:00.388Z,100855.88
2023-05-09T14:18:28.475Z,100856.06
2023-05-09T14:20:56.548Z,100853.72
2023-05-09T14:23:24.925Z,100848.44
2023-05-09T14:25:54.534Z,100858.81
2023-05-09T14:28:22.575Z,100851.84
2023-05-09T14:30:50.815Z,100845.56
2023-05-09T14:33:18.860Z,100846.00
2023-05-09T14:35:47.561Z,100840.13
2023-05-09T14:38:15.623Z,100840.31
2023-05-09T14:40:43.623Z,100835.34
2023-05-09T14:43:13.099Z,100828.09
2023-05-09T14:45:41.375Z,100832.09
2023-05-09T14:48:09.401Z,100825.09
2023-05-09T14:50:37.521Z,100821.28
2023-05-09T14:53:05.648Z,100813.53
2023-05-09T14:55:33.651Z,100813.72
2023-05-09T14:58:02.648Z,100812.75
2023-05-09T15:00:34.899Z,100814.00
2023-05-09T15:03:03.323Z,100813.19
2023-05-09T15:05:31.563Z,100808.88
2023-05-09T15:07:59.606Z,100806.94
2023-05-09T15:10:27.928Z,100798.06
2023-05-09T15:12:56.166Z,100796.78
2023-05-09T15:15:25.178Z,100800.56
2023-05-09T15:17:54.848Z,100798.00
2023-05-09T15:20:22.910Z,100790.75
2023-05-09T15:22:51.406Z,100791.47
2023-05-09T15:25:19.787Z,100782.56
2023-05-09T15:27:50.356Z,100783.81
2023-05-09T15:30:18.621Z,100783.09
2023-05-09T15:32:46.930Z,100775.31
2023-05-09T15:35:18.890Z,100779.66
2023-05-09T15:37:46.981Z,100775.75
2023-05-09T15:40:15.260Z,100779.75
2023-05-09T15:42:43.530Z,100775.31
2023-05-09T15:45:11.989Z,100775.69
2023-05-09T15:47:40.126Z,100764.03
2023-05-09T15:50:09.038Z,100763.75
2023-05-09T15:52:38.440Z,100765.31
2023-05-09T15:55:07.657Z,100760.56
2023-05-09T15:57:35.769Z,100753.16
2023-05-09T16:00:05.625Z,100747.13
2023-05-09T16:02:33.824Z,100746.19
2023-05-09T16:05:01.811Z,100742.84
2023-05-09T16:07:29.907Z,100737.78
2023-05-09T16:09:59.637Z,100739.88
2023-05-09T16:12:28.505Z,100736.50
2023-05-09T16:14:56.494Z,100735.84
2023-05-09T16:17:26.809Z,100730.81
2023-05-09T16:19:56.438Z,100728.03
2023-05-09T16:22:24.531Z,100723.25
2023-05-09T16:24:52.557Z,100722.56
2023-05-09T16:27:22.882Z,100719.78
2023-05-09T16:29:51.018Z,100718.25
2023-05-09T16:32:19.063Z,100717.31
2023-05-09T16:34:47.449Z,100717.59
2023-05-09T16:37:16.255Z,100716.03
2023-05-09T16:39:44.291Z,100718.56
2023-05-09T16:42:12.422Z,100715.19
2023-05-09T16:44:41.881Z,100707.38
2023-05-09T16:47:10.022Z,100708.47
2023-05-09T16:49:38.074Z,100706.28
2023-05-09T16:52:06.444Z,100698.31
2023-05-09T16:54:34.577Z,100693.16
2023-05-09T16:57:03.285Z,100687.22
2023-05-09T16:59:32.903Z,100690.81
2023-05-09T17:02:02.331Z,100691.50
2023-05-09T17:04:30.730Z,100692.66
2023-05-09T17:07:01.519Z,100698.75
2023-05-09T17:09:29.622Z,100693.19
2023-05-09T17:11:57.668Z,100695.00
2023-05-09T17:14:25.824Z,100688.75
2023-05-09T17:16:54.281Z,100690.28
2023-05-09T17:19:23.889Z,100688.16
2023-05-09T17:21:52.101Z,100682.84
2023-05-09T17:24:20.231Z,100685.06
2023-05-09T17:26:48.339Z,100683.53
2023-05-09T17:29:16.652Z,100681.47
2023-05-09T17:31:47.872Z,100676.44
2023-05-09T17:34:15.973Z,100691.16
2023-05-09T17:36:45.456Z,100682.25
2023-05-09T17:39:13.504Z,100678.34
2023-05-09T17:41:41.556Z,100682.53
2023-05-09T17:44:12.265Z,100676.47
2023-05-09T17:46:41.140Z,100678.81
2023-05-09T17:49:11.050Z,100671.84
2023-05-09T17:51:39.078Z,100665.31
2023-05-09T17:54:08.586Z,100667.78
2023-05-09T17:56:36.629Z,100672.38
2023-05-09T17:59:04.669Z,100674.44
2023-05-09T18:01:32.783Z,100673.06
2023-05-09T18:04:00.969Z,100669.47
2023-05-09T18:06:31.286Z,100666.53
2023-05-09T18:09:01.925Z,100668.53
2023-05-09T18:11:31.439Z,100668.53
2023-05-09T18:13:59.783Z,100668.03
2023-05-09T18:16:30.222Z,100665.06
2023-05-09T18:18:59.366Z,100667.00
2023-05-09T18:21:28.728Z,100667.25
2023-05-09T18:23:57.262Z,100668.78
2023-05-09T18:26:25.516Z,100660.69
2023-05-09T18:28:54.945Z,100660.97
2023-05-09T18:31:23.075Z,100666.25
2023-05-09T18:33:51.303Z,100663.16
2023-05-09T18:36:19.748Z,100655.34
2023-05-09T18:38:48.329Z,100665.34
2023-05-09T18:41:16.695Z,100666.19
2023-05-09T18:43:46.538Z,100660.34
2023-05-09T18:46:21.044Z,100665.28
2023-05-09T18:48:51.080Z,100678.03
2023-05-09T18:51:19.672Z,100671.78
2023-05-09T18:53:48.504Z,100670.94
2023-05-09T18:56:20.939Z,100669.41
2023-05-09T18:58:50.268Z,100662.56
2023-05-09T19:01:20.164Z,100671.59
2023-05-09T19:03:54.012Z,100665.09
2023-05-09T19:06:24.152Z,100662.94
2023-05-09T19:08:53.874Z,100665.47
2023-05-09T19:11:25.050Z,100671.59
2023-05-09T19:13:56.507Z,100666.31
2023-05-09T19:16:26.784Z,100661.25
2023-05-09T19:18:57.026Z,100662.50
2023-05-09T19:21:25.611Z,100660.97
2023-05-09T19:23:53.949Z,100667.34
2023-05-09T19:26:22.793Z,100669.13
2023-05-09T19:28:51.133Z,100674.56
2023-05-09T19:31:20.564Z,100672.06
2023-05-09T19:33:50.652Z,100679.84
2023-05-09T19:36:19.047Z,100675.66
2023-05-09T19:38:47.413Z,100671.31
2023-05-09T19:41:15.827Z,100678.69
2023-05-09T19:43:44.188Z,100674.22
2023-05-09T19:46:15.340Z,100670.03
2023-05-09T19:48:43.649Z,100671.13
2023-05-09T19:51:15.434Z,100665.28
2023-05-09T19:53:43.844Z,100667.59
2023-05-09T19:56:12.787Z,100671.19
2023-05-09T19:58:40.987Z,100672.03
2023-05-09T20:01:09.091Z,100676.59
2023-05-09T20:03:38.772Z,100680.22
2023-05-09T20:06:07.791Z,100681.06
2023-05-09T20:08:37.525Z,100678.41
2023-05-09T20:11:09.035Z,100679.25
2023-05-09T20:13:37.336Z,100676.13
2023-05-09T20:16:06.050Z,100675.56
2023-05-09T20:18:34.425Z,100673.16
2023-05-09T20:21:03.116Z,100672.47
2023-05-09T20:23:31.780Z,100670.38
2023-05-09T20:26:01.456Z,100674.50
2023-05-09T20:28:33.218Z,100670.91
2023-05-09T20:31:01.305Z,100674.50
2023-05-09T20:33:29.321Z,100671.66
2023-05-09T20:35:57.364Z,100673.06
2023-05-09T20:38:25.449Z,100672.13
2023-05-09T20:40:53.567Z,100673.94
2023-05-09T20:43:22.972Z,100672.38
2023-05-09T20:45:51.925Z,100671.53
2023-05-09T20:48:22.594Z,100669.00
2023-05-09T20:50:53.158Z,100667.19
2023-05-09T20:53:21.303Z,100669.00
2023-05-09T20:55:50.454Z,100666.63
2023-05-09T20:58:22.204Z,100674.81
2023-05-09T21:00:50.545Z,100667.56
2023-05-09T21:03:18.792Z,100672.16
2023-05-09T21:05:46.852Z,100673.81
2023-05-09T21:08:14.945Z,100667.72
2023-05-09T21:10:43.078Z,100668.78
2023-05-09T21:13:11.229Z,100668.78
2023-05-09T21:15:40.648Z,100664.59
2023-05-09T21:18:08.770Z,100670.00
2023-05-09T21:20:36.774Z,100664.72
2023-05-09T21:23:04.842Z,100669.06
2023-05-09T21:25:32.831Z,100662.22
2023-05-09T21:28:00.901Z,100662.22
2023-05-09T21:30:28.949Z,100654.53
2023-05-09T21:33:01.136Z,100658.13
2023-05-09T21:35:29.352Z,100661.59
2023-05-09T21:37:57.391Z,100658.25
2023-05-09T21:40:25.654Z,100653.09
2023-05-09T21:42:53.670Z,100657.53
2023-05-09T21:45:21.748Z,100656.63
2023-05-09T21:47:49.971Z,100659.47
2023-05-09T21:50:19.757Z,100664.66
2023-05-09T21:52:47.849Z,100656.63
2023-05-09T21:55:16.452Z,100667.19
2023-05-09T21:57:44.516Z,100663.69
2023-05-09T22:00:15.317Z,100666.84
2023-05-09T22:02:43.997Z,100661.31
2023-05-09T22:05:12.704Z,100670.44
2023-05-09T22:07:42.094Z,100663.72
2023-05-09T22:10:11.318Z,100669.09
2023-05-09T22:12:39.491Z,100671.75
2023-05-09T22:15:09.114Z,100669.81
2023-05-09T22:17:37.349Z,100672.84
2023-05-09T22:20:06.374Z,100670.91
2023-05-09T22:22:34.382Z,100664.78
2023-05-09T22:25:04.484Z,100662.88
2023-05-09T22:27:32.673Z,100672.47
2023-05-09T22:30:01.457Z,100662.88
2023-05-09T22:32:29.632Z,100667.31
2023-05-09T22:34:57.640Z,100662.97
2023-05-09T22:37:25.692Z,100674.84
2023-05-09T22:39:53.724Z,100668.50
2023-05-09T22:42:23.219Z,100670.06
2023-05-09T22:44:52.911Z,100668.25
2023-05-09T22:47:20.969Z,100665.88
2023-05-09T22:49:51.972Z,100672.22
2023-05-09T22:52:20.205Z,100671.97
2023-05-09T22:54:51.244Z,100663.34
2023-05-09T22:57:20.552Z,100663.47
2023-05-09T22:59:50.058Z,100667.78
2023-05-09T23:02:18.371Z,100659.97
2023-05-09T23:04:48.721Z,100670.31
2023-05-09T23:07:16.789Z,100665.88
2023-05-09T23:09:44.823Z,100670.91
2023-05-09T23:12:12.857Z,100668.13
2023-05-09T23:14:40.860Z,100674.41
2023-05-09T23:17:10.214Z,100673.16
2023-05-09T23:19:38.226Z,100665.63
2023-05-09T23:22:06.229Z,100667.06
2023-05-09T23:24:34.253Z,100665.13
2023-05-09T23:27:03.074Z,100669.69
2023-05-09T23:29:31.297Z,100668.88
2023-05-09T23:31:59.296Z,100671.38
2023-05-09T23:34:29.500Z,100661.16
2023-05-09T23:36:57.537Z,100669.34
2023-05-09T23:39:29.463Z,100670.16
2023-05-09T23:42:00.372Z,100667.44
2023-05-09T23:44:28.668Z,100665.75
2023-05-09T23:46:59.132Z,100668.88
2023-05-09T23:49:29.053Z,100665.50
2023-05-09T23:51:57.128Z,100666.31
2023-05-09T23:54:25.505Z,100663.81
2023-05-09T23:56:53.602Z,100661.91
2023-05-09T23:59:21.653Z,100660.34
